createdAt,value
2019-05-05T00:00:41.815Z,1006.74
2019-05-05T00:01:41.780Z,1006.67
2019-05-05T00:02:41.817Z,1006.74
2019-05-05T00:03:41.770Z,1006.75
2019-05-05T00:04:41.768Z,1006.76
2019-05-05T00:05:41.747Z,1006.91
2019-05-05T00:06:41.740Z,1006.85
2019-05-05T00:07:41.771Z,1006.81
2019-05-05T00:08:41.718Z,1006.96
2019-05-05T00:09:41.700Z,1006.86
2019-05-05T00:10:41.705Z,1006.90
2019-05-05T00:11:41.682Z,1006.91
2019-05-05T00:12:41.694Z,1006.88
2019-05-05T00:13:41.660Z,1006.94
2019-05-05T00:14:41.657Z,1006.92
2019-05-05T00:15:41.641Z,1006.96
2019-05-05T00:16:41.631Z,1007.10
2019-05-05T00:17:41.656Z,1006.98
2019-05-05T00:18:41.611Z,1007.00
2019-05-05T00:19:41.594Z,1006.99
2019-05-05T00:20:41.596Z,1006.92
2019-05-05T00:21:41.572Z,1007.01
2019-05-05T00:22:41.578Z,1006.94
2019-05-05T00:23:41.562Z,1007.05
2019-05-05T00:24:41.559Z,1007.00
2019-05-05T00:25:41.539Z,1007.07
2019-05-05T00:26:41.518Z,1007.02
2019-05-05T00:27:41.549Z,1007.18
2019-05-05T00:28:41.502Z,1007.01
2019-05-05T00:29:41.494Z,1007.06
2019-05-05T00:30:41.475Z,1007.06
2019-05-05T00:31:41.460Z,1007.00
2019-05-05T00:32:41.455Z,1007.02
2019-05-05T00:33:41.453Z,1007.19
2019-05-05T00:34:41.425Z,1007.17
2019-05-05T00:35:41.430Z,1007.21
2019-05-05T00:36:41.409Z,1007.23
2019-05-05T00:37:41.401Z,1007.15
2019-05-05T00:38:41.416Z,1007.16
2019-05-05T00:39:41.378Z,1007.26
2019-05-05T00:40:41.359Z,1007.26
2019-05-05T00:41:41.345Z,1007.14
2019-05-05T00:42:41.336Z,1007.11
2019-05-05T00:43:41.339Z,1007.23
2019-05-05T00:44:41.311Z,1007.15
2019-05-05T00:45:41.311Z,1007.16
2019-05-05T00:46:41.302Z,1007.13
2019-05-05T00:47:41.281Z,1007.16
2019-05-05T00:48:41.309Z,1007.14
2019-05-05T00:49:46.357Z,1007.30
2019-05-05T00:50:42.260Z,1007.12
2019-05-05T00:51:41.239Z,1007.23
2019-05-05T00:52:41.243Z,1007.18
2019-05-05T00:53:41.255Z,1007.16
2019-05-05T00:54:41.221Z,1007.24
2019-05-05T00:55:41.197Z,1007.12
2019-05-05T00:56:41.186Z,1007.17
2019-05-05T00:57:41.173Z,1007.18
2019-05-05T00:58:41.194Z,1007.25
2019-05-05T00:59:41.261Z,1007.14
2019-05-05T01:00:41.161Z,1007.20
2019-05-05T01:01:41.135Z,1007.09
2019-05-05T01:02:41.155Z,1007.24
2019-05-05T01:03:41.143Z,1007.18
2019-05-05T01:04:41.119Z,1007.26
2019-05-05T01:05:41.096Z,1007.15
2019-05-05T01:06:41.078Z,1007.20
2019-05-05T01:07:41.065Z,1007.20
2019-05-05T01:08:41.078Z,1007.22
2019-05-05T01:09:41.086Z,1007.22
2019-05-05T01:10:41.027Z,1007.23
2019-05-05T01:11:41.025Z,1007.27
2019-05-05T01:12:41.001Z,1007.31
2019-05-05T01:13:41.020Z,1007.25
2019-05-05T01:14:40.993Z,1007.29
2019-05-05T01:15:40.977Z,1007.25
2019-05-05T01:16:40.962Z,1007.22
2019-05-05T01:17:40.958Z,1007.43
2019-05-05T01:18:40.971Z,1007.41
2019-05-05T01:19:40.938Z,1007.35
2019-05-05T01:20:40.917Z,1007.31
2019-05-05T01:21:40.914Z,1007.27
2019-05-05T01:22:40.904Z,1007.26
2019-05-05T01:23:40.922Z,1007.36
2019-05-05T01:24:40.882Z,1007.39
2019-05-05T01:25:40.878Z,1007.32
2019-05-05T01:26:40.854Z,1007.36
2019-05-05T01:27:40.850Z,1007.37
2019-05-05T01:28:40.860Z,1007.35
2019-05-05T01:29:40.838Z,1007.37
2019-05-05T01:30:40.816Z,1007.32
2019-05-05T01:31:40.803Z,1007.34
2019-05-05T01:32:40.800Z,1007.48
2019-05-05T01:33:40.788Z,1007.44
2019-05-05T01:34:40.818Z,1007.47
2019-05-05T01:35:40.783Z,1007.51
2019-05-05T01:36:40.752Z,1007.56
2019-05-05T01:37:40.739Z,1007.54
2019-05-05T01:38:40.724Z,1007.53
2019-05-05T01:39:40.740Z,1007.54
2019-05-05T01:40:40.704Z,1007.59
2019-05-05T01:41:40.687Z,1007.60
2019-05-05T01:42:40.693Z,1007.68
2019-05-05T01:43:40.663Z,1007.69
2019-05-05T01:44:40.692Z,1007.68
2019-05-05T01:45:40.645Z,1007.73
2019-05-05T01:46:40.646Z,1007.75
2019-05-05T01:51:09.588Z,1007.86
2019-05-05T01:52:09.548Z,1007.92
2019-05-05T01:53:09.535Z,1007.95
2019-05-05T01:54:09.517Z,1007.88
2019-05-05T01:55:09.538Z,1007.90
2019-05-05T01:56:09.499Z,1007.96
2019-05-05T01:57:09.487Z,1007.96
2019-05-05T01:58:09.476Z,1007.97
2019-05-05T01:59:09.471Z,1008.04
2019-05-05T02:00:09.470Z,1007.99
2019-05-05T02:01:09.438Z,1007.98
2019-05-05T02:02:09.430Z,1007.98
2019-05-05T02:03:09.419Z,1008.03
2019-05-05T02:04:09.402Z,1008.13
2019-05-05T02:05:09.414Z,1008.03
2019-05-05T02:06:09.384Z,1008.13
2019-05-05T02:07:09.389Z,1008.06
2019-05-05T02:08:09.364Z,1008.08
2019-05-05T02:09:09.353Z,1008.07
2019-05-05T02:10:09.389Z,1008.14
2019-05-05T02:11:10.935Z,1008.15
2019-05-05T02:12:09.322Z,1008.16
2019-05-05T02:13:09.305Z,1008.13
2019-05-05T02:14:09.309Z,1008.16
2019-05-05T02:15:09.349Z,1008.18
2019-05-05T02:16:09.279Z,1008.19
2019-05-05T02:17:09.260Z,1008.24
2019-05-05T02:18:09.301Z,1008.26
2019-05-05T02:19:09.243Z,1008.31
2019-05-05T02:20:09.264Z,1008.28
2019-05-05T02:21:09.243Z,1008.29
2019-05-05T02:22:09.273Z,1008.21
2019-05-05T02:23:09.195Z,1008.20
2019-05-05T02:24:09.203Z,1008.15
2019-05-05T02:25:09.205Z,1008.16
2019-05-05T02:26:09.181Z,1008.13
2019-05-05T02:27:09.152Z,1008.12
2019-05-05T02:28:09.162Z,1008.18
2019-05-05T02:29:09.137Z,1008.16
2019-05-05T02:30:09.157Z,1008.15
2019-05-05T02:31:09.110Z,1008.22
2019-05-05T02:32:09.102Z,1008.22
2019-05-05T02:33:09.108Z,1008.15
2019-05-05T02:34:09.113Z,1008.21
2019-05-05T02:35:09.107Z,1008.18
2019-05-05T02:36:09.082Z,1008.30
2019-05-05T02:37:09.051Z,1008.24
2019-05-05T02:38:09.036Z,1008.17
2019-05-05T02:39:09.023Z,1008.33
2019-05-05T02:40:09.047Z,1008.30
2019-05-05T02:41:09.021Z,1008.35
2019-05-05T02:42:09.013Z,1008.25
2019-05-05T02:43:08.980Z,1008.27
2019-05-05T02:44:08.993Z,1008.32
2019-05-05T02:45:08.974Z,1008.34
2019-05-05T02:46:08.978Z,1008.33
2019-05-05T02:47:08.962Z,1008.40
2019-05-05T02:48:08.922Z,1008.32
2019-05-05T02:49:08.935Z,1008.31
2019-05-05T02:50:08.911Z,1008.39
2019-05-05T02:51:08.979Z,1008.50
2019-05-05T02:52:08.884Z,1008.50
2019-05-05T02:53:08.871Z,1008.49
2019-05-05T02:54:08.862Z,1008.56
2019-05-05T02:55:08.850Z,1008.55
2019-05-05T02:56:08.870Z,1008.60
2019-05-05T02:57:08.822Z,1008.52
2019-05-05T02:58:08.814Z,1008.55
2019-05-05T02:59:08.811Z,1008.53
2019-05-05T03:00:08.788Z,1008.53
2019-05-05T03:01:08.800Z,1008.62
2019-05-05T03:02:08.777Z,1008.60
2019-05-05T03:03:08.764Z,1008.56
2019-05-05T03:04:08.756Z,1008.59
2019-05-05T03:05:08.734Z,1008.62
2019-05-05T03:06:08.769Z,1008.62
2019-05-05T03:07:08.772Z,1008.62
2019-05-05T03:08:08.716Z,1008.64
2019-05-05T03:09:08.693Z,1008.66
2019-05-05T03:10:08.692Z,1008.61
2019-05-05T03:11:08.678Z,1008.59
2019-05-05T03:12:11.028Z,1008.63
2019-05-05T03:13:08.655Z,1008.68
2019-05-05T03:14:08.650Z,1008.64
2019-05-05T03:15:08.623Z,1008.69
2019-05-05T03:16:08.623Z,1008.69
2019-05-05T03:17:08.627Z,1008.71
2019-05-05T03:18:08.610Z,1008.73
2019-05-05T03:19:08.584Z,1008.72
2019-05-05T03:20:08.582Z,1008.86
2019-05-05T03:21:08.562Z,1008.86
2019-05-05T03:22:08.575Z,1008.78
2019-05-05T03:23:08.545Z,1008.81
2019-05-05T03:24:08.525Z,1008.80
2019-05-05T03:25:08.517Z,1008.82
2019-05-05T03:26:08.501Z,1008.86
2019-05-05T03:27:08.521Z,1008.87
2019-05-05T03:28:08.497Z,1008.89
2019-05-05T03:29:08.475Z,1008.90
2019-05-05T03:30:08.466Z,1008.93
2019-05-05T03:31:08.464Z,1008.97
2019-05-05T03:32:11.534Z,1009.13
2019-05-05T03:33:08.428Z,1009.12
2019-05-05T03:34:08.439Z,1008.94
2019-05-05T03:35:08.430Z,1009.03
2019-05-05T03:36:08.403Z,1008.95
2019-05-05T03:37:08.407Z,1008.93
2019-05-05T03:38:08.381Z,1008.98
2019-05-05T03:39:08.381Z,1008.98
2019-05-05T03:40:08.361Z,1009.00
2019-05-05T03:41:08.345Z,1008.97
2019-05-05T03:42:08.363Z,1009.03
2019-05-05T03:43:08.319Z,1008.97
2019-05-05T03:44:08.341Z,1009.03
2019-05-05T03:45:08.304Z,1008.96
2019-05-05T03:46:08.289Z,1009.00
2019-05-05T03:47:08.285Z,1008.96
2019-05-05T03:48:08.300Z,1008.97
2019-05-05T03:49:08.262Z,1009.01
2019-05-05T03:50:08.244Z,1009.05
2019-05-05T03:51:18.294Z,1009.10
2019-05-05T03:52:09.330Z,1009.07
2019-05-05T03:53:08.237Z,1009.16
2019-05-05T03:54:08.201Z,1009.18
2019-05-05T03:55:08.193Z,1009.18
2019-05-05T03:56:08.188Z,1009.20
2019-05-05T03:57:08.167Z,1009.36
2019-05-05T03:58:08.188Z,1009.44
2019-05-05T03:59:08.155Z,1009.43
2019-05-05T04:00:08.142Z,1009.31
2019-05-05T04:01:08.136Z,1009.30
2019-05-05T04:02:08.107Z,1009.32
2019-05-05T04:03:08.134Z,1009.28
2019-05-05T04:04:08.091Z,1009.43
2019-05-05T04:05:08.084Z,1009.35
2019-05-05T04:06:08.072Z,1009.28
2019-05-05T04:07:08.074Z,1009.45
2019-05-05T04:08:08.067Z,1009.33
2019-05-05T04:09:08.034Z,1009.37
2019-05-05T04:10:08.039Z,1009.34
2019-05-05T04:11:08.008Z,1009.47
2019-05-05T04:12:08.012Z,1009.38
2019-05-05T04:13:08.026Z,1009.36
2019-05-05T04:14:07.995Z,1009.38
2019-05-05T04:15:07.982Z,1009.37
2019-05-05T04:16:07.970Z,1009.41
2019-05-05T04:17:07.949Z,1009.45
2019-05-05T04:18:07.962Z,1009.43
2019-05-05T04:19:07.939Z,1009.46
2019-05-05T04:20:07.928Z,1009.49
2019-05-05T04:21:07.908Z,1009.48
2019-05-05T04:22:07.894Z,1009.56
2019-05-05T04:23:07.916Z,1009.49
2019-05-05T04:24:07.896Z,1009.45
2019-05-05T04:25:07.871Z,1009.48
2019-05-05T04:26:07.863Z,1009.55
2019-05-05T04:27:07.847Z,1009.55
2019-05-05T04:28:07.855Z,1009.52
2019-05-05T04:29:08.421Z,1009.44
2019-05-05T04:30:07.811Z,1009.46
2019-05-05T04:31:07.802Z,1009.57
2019-05-05T04:32:07.853Z,1009.57
2019-05-05T04:33:07.811Z,1009.59
2019-05-05T04:34:07.769Z,1009.62
2019-05-05T04:35:07.764Z,1009.58
2019-05-05T04:36:07.744Z,1009.55
2019-05-05T04:37:07.745Z,1009.63
2019-05-05T04:38:07.721Z,1009.78
2019-05-05T04:39:07.739Z,1009.72
2019-05-05T04:40:07.703Z,1009.59
2019-05-05T04:41:07.677Z,1009.63
2019-05-05T04:42:07.681Z,1009.62
2019-05-05T04:43:07.691Z,1009.67
2019-05-05T04:44:07.682Z,1009.78
2019-05-05T04:45:07.652Z,1009.76
2019-05-05T04:46:07.637Z,1009.74
2019-05-05T04:47:07.617Z,1009.74
2019-05-05T04:48:07.671Z,1009.61
2019-05-05T04:49:07.630Z,1009.67
2019-05-05T04:50:07.588Z,1009.63
2019-05-05T04:51:07.585Z,1009.68
2019-05-05T04:52:07.573Z,1009.70
2019-05-05T04:53:07.555Z,1009.69
2019-05-05T04:54:07.565Z,1009.80
2019-05-05T04:55:07.525Z,1009.69
2019-05-05T04:56:07.528Z,1009.69
2019-05-05T04:57:07.515Z,1009.64
2019-05-05T04:58:07.510Z,1009.70
2019-05-05T04:59:07.519Z,1009.68
2019-05-05T05:00:07.487Z,1009.69
2019-05-05T05:01:07.470Z,1009.79
2019-05-05T05:02:07.463Z,1009.78
2019-05-05T05:03:07.449Z,1009.85
2019-05-05T05:04:07.477Z,1009.73
2019-05-05T05:05:07.432Z,1009.65
2019-05-05T05:06:07.421Z,1009.76
2019-05-05T05:07:07.398Z,1009.89
2019-05-05T05:08:07.393Z,1009.87
2019-05-05T05:09:07.387Z,1009.84
2019-05-05T05:10:07.386Z,1009.74
2019-05-05T05:11:07.361Z,1009.74
2019-05-05T05:12:07.362Z,1009.88
2019-05-05T05:13:07.329Z,1009.85
2019-05-05T05:14:07.331Z,1009.86
2019-05-05T05:15:07.347Z,1009.78
2019-05-05T05:16:07.308Z,1009.76
2019-05-05T05:17:07.291Z,1009.79
2019-05-05T05:18:07.276Z,1009.84
2019-05-05T05:19:07.274Z,1009.92
2019-05-05T05:20:07.285Z,1009.72
2019-05-05T05:21:07.254Z,1009.75
2019-05-05T05:22:07.247Z,1009.79
2019-05-05T05:23:07.239Z,1009.75
2019-05-05T05:24:07.217Z,1009.74
2019-05-05T05:25:07.232Z,1009.74
2019-05-05T05:26:07.203Z,1009.75
2019-05-05T05:27:07.204Z,1009.79
2019-05-05T05:28:07.183Z,1009.77
2019-05-05T05:29:07.153Z,1009.76
2019-05-05T05:30:07.187Z,1009.71
2019-05-05T05:31:07.147Z,1009.80
2019-05-05T05:32:07.127Z,1009.91
2019-05-05T05:33:07.120Z,1009.95
2019-05-05T05:34:07.120Z,1009.92
2019-05-05T05:35:07.124Z,1009.97
2019-05-05T05:36:07.082Z,1009.93
2019-05-05T05:37:07.080Z,1009.79
2019-05-05T05:38:07.072Z,1009.82
2019-05-05T05:39:07.053Z,1009.82
2019-05-05T05:40:07.054Z,1009.83
2019-05-05T05:41:07.024Z,1009.89
2019-05-05T05:42:07.026Z,1009.80
2019-05-05T05:43:07.022Z,1009.83
2019-05-05T05:44:07.008Z,1009.93
2019-05-05T05:45:07.015Z,1009.91
2019-05-05T05:46:06.980Z,1009.92
2019-05-05T05:47:06.962Z,1009.93
2019-05-05T05:48:06.962Z,1009.90
2019-05-05T05:49:06.942Z,1009.91
2019-05-05T05:50:06.979Z,1009.94
2019-05-05T05:51:06.918Z,1009.85
2019-05-05T05:52:15.786Z,1009.89
2019-05-05T05:53:07.901Z,1009.92
2019-05-05T05:54:06.891Z,1010.05
2019-05-05T05:55:06.883Z,1010.08
2019-05-05T05:56:06.890Z,1010.03
2019-05-05T05:57:06.871Z,1010.01
2019-05-05T05:58:06.839Z,1010.02
2019-05-05T05:59:06.823Z,1010.04
2019-05-05T06:00:06.819Z,1010.10
2019-05-05T06:01:06.852Z,1010.04
2019-05-05T06:02:12.302Z,1010.08
2019-05-05T06:03:07.795Z,1010.17
2019-05-05T06:04:06.793Z,1010.14
2019-05-05T06:05:06.771Z,1010.16
2019-05-05T06:06:06.776Z,1010.20
2019-05-05T06:07:06.762Z,1010.14
2019-05-05T06:08:06.743Z,1010.20
2019-05-05T06:09:06.723Z,1010.19
2019-05-05T06:10:06.718Z,1010.21
2019-05-05T06:11:06.761Z,1010.37
2019-05-05T06:12:06.706Z,1010.24
2019-05-05T06:13:06.750Z,1010.34
2019-05-05T06:14:06.672Z,1010.28
2019-05-05T06:15:06.664Z,1010.30
2019-05-05T06:16:06.668Z,1010.31
2019-05-05T06:17:06.663Z,1010.32
2019-05-05T06:18:06.624Z,1010.27
2019-05-05T06:19:06.607Z,1010.36
2019-05-05T06:20:06.613Z,1010.52
2019-05-05T06:21:06.609Z,1010.48
2019-05-05T06:22:06.588Z,1010.42
2019-05-05T06:23:06.577Z,1010.50
2019-05-05T06:24:06.571Z,1010.53
2019-05-05T06:25:07.017Z,1010.52
2019-05-05T06:26:07.207Z,1010.55
2019-05-05T06:27:06.544Z,1010.60
2019-05-05T06:28:06.509Z,1010.49
2019-05-05T06:29:06.515Z,1010.50
2019-05-05T06:30:06.495Z,1010.51
2019-05-05T06:31:06.507Z,1010.57
2019-05-05T06:32:06.481Z,1010.48
2019-05-05T06:33:06.464Z,1010.57
2019-05-05T06:34:06.458Z,1010.47
2019-05-05T06:35:06.444Z,1010.47
2019-05-05T06:36:06.459Z,1010.51
2019-05-05T06:37:06.414Z,1010.60
2019-05-05T06:38:06.423Z,1010.60
2019-05-05T06:39:06.396Z,1010.49
2019-05-05T06:40:06.389Z,1010.44
2019-05-05T06:41:06.392Z,1010.52
2019-05-05T06:42:06.382Z,1010.67
2019-05-05T06:43:06.348Z,1010.73
2019-05-05T06:44:06.348Z,1010.59
2019-05-05T06:45:06.873Z,1010.54
2019-05-05T06:46:06.360Z,1010.72
2019-05-05T06:47:06.305Z,1010.61
2019-05-05T06:48:06.292Z,1010.57
2019-05-05T06:49:06.288Z,1010.63
2019-05-05T06:50:06.274Z,1010.64
2019-05-05T06:51:06.262Z,1010.64
2019-05-05T06:52:06.276Z,1010.70
2019-05-05T06:53:06.273Z,1010.76
2019-05-05T06:54:06.252Z,1010.84
2019-05-05T06:55:06.228Z,1010.76
2019-05-05T06:56:06.234Z,1010.73
2019-05-05T06:57:06.236Z,1010.68
2019-05-05T06:58:06.193Z,1010.69
2019-05-05T06:59:06.184Z,1010.79
2019-05-05T07:00:06.160Z,1010.71
2019-05-05T07:01:06.229Z,1010.69
2019-05-05T07:02:06.174Z,1010.80
2019-05-05T07:03:07.883Z,1010.76
2019-05-05T07:04:06.124Z,1010.79
2019-05-05T07:05:06.120Z,1010.70
2019-05-05T07:06:06.104Z,1010.67
2019-05-05T07:07:06.106Z,1010.65
2019-05-05T07:08:06.078Z,1010.68
2019-05-05T07:09:06.070Z,1010.64
2019-05-05T07:10:06.065Z,1010.69
2019-05-05T07:11:06.086Z,1010.80
2019-05-05T07:12:06.072Z,1010.73
2019-05-05T07:13:06.032Z,1010.87
2019-05-05T07:14:06.023Z,1010.72
2019-05-05T07:15:06.005Z,1010.73
2019-05-05T07:16:05.996Z,1010.81
2019-05-05T07:17:05.981Z,1010.73
2019-05-05T07:18:05.986Z,1010.66
2019-05-05T07:19:05.949Z,1010.75
2019-05-05T07:20:05.939Z,1010.70
2019-05-05T07:21:05.931Z,1010.65
2019-05-05T07:22:05.935Z,1010.70
2019-05-05T07:23:05.939Z,1010.62
2019-05-05T07:24:05.917Z,1010.86
2019-05-05T07:25:05.896Z,1010.60
2019-05-05T07:26:05.890Z,1010.66
2019-05-05T07:27:05.875Z,1010.66
2019-05-05T07:28:05.878Z,1010.69
2019-05-05T07:29:05.848Z,1010.71
2019-05-05T07:30:05.855Z,1010.64
2019-05-05T07:31:05.889Z,1010.68
2019-05-05T07:32:05.830Z,1010.66
2019-05-05T07:33:05.822Z,1010.69
2019-05-05T07:34:05.807Z,1010.64
2019-05-05T07:35:05.817Z,1010.82
2019-05-05T07:36:06.164Z,1010.80
2019-05-05T07:37:05.762Z,1010.83
2019-05-05T07:38:05.764Z,1010.71
2019-05-05T07:39:05.735Z,1010.63
2019-05-05T07:40:05.725Z,1010.68
2019-05-05T07:41:05.711Z,1010.62
2019-05-05T07:42:05.785Z,1010.71
2019-05-05T07:43:05.728Z,1010.82
2019-05-05T07:44:05.681Z,1010.76
2019-05-05T07:45:19.355Z,1010.80
2019-05-05T07:46:06.665Z,1010.72
2019-05-05T07:47:05.655Z,1010.64
2019-05-05T07:48:06.056Z,1010.81
2019-05-05T07:49:05.628Z,1010.67
2019-05-05T07:50:05.619Z,1010.67
2019-05-05T07:51:05.621Z,1010.73
2019-05-05T07:52:05.621Z,1010.80
2019-05-05T07:53:14.697Z,1010.75
2019-05-05T07:54:06.590Z,1010.71
2019-05-05T07:55:05.569Z,1010.73
2019-05-05T07:56:07.613Z,1010.76
2019-05-05T07:57:05.538Z,1010.73
2019-05-05T07:58:05.527Z,1010.81
2019-05-05T07:59:05.535Z,1010.84
2019-05-05T08:00:05.550Z,1010.85
2019-05-05T08:01:05.487Z,1010.71
2019-05-05T08:02:05.487Z,1010.81
2019-05-05T08:03:05.463Z,1010.78
2019-05-05T08:04:05.477Z,1010.83
2019-05-05T08:05:05.447Z,1010.82
2019-05-05T08:06:05.435Z,1010.81
2019-05-05T08:07:05.420Z,1010.80
2019-05-05T08:08:05.482Z,1010.79
2019-05-05T08:09:05.431Z,1010.88
2019-05-05T08:10:05.393Z,1010.84
2019-05-05T08:11:05.366Z,1010.91
2019-05-05T08:12:05.375Z,1010.82
2019-05-05T08:13:05.360Z,1010.80
2019-05-05T08:14:05.358Z,1010.79
2019-05-05T08:15:05.335Z,1010.77
2019-05-05T08:16:05.341Z,1010.73
2019-05-05T08:17:05.313Z,1010.79
2019-05-05T08:18:05.304Z,1010.85
2019-05-05T08:19:05.326Z,1010.84
2019-05-05T08:20:05.280Z,1010.82
2019-05-05T08:21:05.272Z,1010.88
2019-05-05T08:22:05.254Z,1010.93
2019-05-05T08:23:08.175Z,1010.77
2019-05-05T08:24:05.298Z,1010.81
2019-05-05T08:25:05.243Z,1010.82
2019-05-05T08:26:05.212Z,1010.84
2019-05-05T08:27:05.228Z,1010.89
2019-05-05T08:28:05.192Z,1010.93
2019-05-05T08:29:05.173Z,1010.83
2019-05-05T08:30:05.363Z,1010.85
2019-05-05T08:31:05.161Z,1010.90
2019-05-05T08:32:05.146Z,1010.90
2019-05-05T08:33:05.141Z,1010.89
2019-05-05T08:34:05.121Z,1010.83
2019-05-05T08:35:05.137Z,1010.86
2019-05-05T08:36:05.105Z,1010.86
2019-05-05T08:37:05.088Z,1011.05
2019-05-05T08:38:05.075Z,1011.03
2019-05-05T08:39:05.061Z,1011.03
2019-05-05T08:40:05.071Z,1011.12
2019-05-05T08:41:05.038Z,1011.05
2019-05-05T08:42:05.043Z,1010.92
2019-05-05T08:43:05.020Z,1010.90
2019-05-05T08:44:05.009Z,1010.92
2019-05-05T08:45:05.029Z,1011.03
2019-05-05T08:46:05.079Z,1011.06
2019-05-05T08:47:04.983Z,1011.01
2019-05-05T08:48:05.165Z,1010.87
2019-05-05T08:49:04.956Z,1010.93
2019-05-05T08:50:04.971Z,1011.01
2019-05-05T08:51:05.113Z,1010.99
2019-05-05T08:52:04.916Z,1011.03
2019-05-05T08:53:08.318Z,1011.16
2019-05-05T08:54:04.897Z,1011.07
2019-05-05T08:55:04.900Z,1011.07
2019-05-05T08:56:04.905Z,1011.02
2019-05-05T08:57:04.875Z,1011.07
2019-05-05T08:58:04.855Z,1010.98
2019-05-05T08:59:04.857Z,1011.00
2019-05-05T09:00:05.004Z,1010.95
2019-05-05T09:01:04.842Z,1010.91
2019-05-05T09:02:04.817Z,1010.82
2019-05-05T09:03:04.800Z,1010.87
2019-05-05T09:04:04.788Z,1010.87
2019-05-05T09:05:04.794Z,1010.91
2019-05-05T09:06:04.875Z,1010.98
2019-05-05T09:07:05.099Z,1011.04
2019-05-05T09:08:04.780Z,1011.13
2019-05-05T09:09:04.727Z,1011.04
2019-05-05T09:10:04.732Z,1010.94
2019-05-05T09:11:05.013Z,1010.98
2019-05-05T09:12:04.717Z,1010.99
2019-05-05T09:13:04.683Z,1011.11
2019-05-05T09:14:04.671Z,1011.08
2019-05-05T09:15:04.667Z,1011.05
2019-05-05T09:16:04.696Z,1010.95
2019-05-05T09:17:04.678Z,1010.95
2019-05-05T09:18:05.070Z,1010.93
2019-05-05T09:19:04.607Z,1011.09
2019-05-05T09:20:04.690Z,1010.99
2019-05-05T09:21:04.611Z,1010.95
2019-05-05T09:22:08.292Z,1010.94
2019-05-05T09:23:04.577Z,1011.05
2019-05-05T09:24:05.373Z,1011.00
2019-05-05T09:25:04.555Z,1011.11
2019-05-05T09:26:04.544Z,1011.12
2019-05-05T09:27:04.541Z,1011.09
2019-05-05T09:28:06.138Z,1011.05
2019-05-05T09:29:04.520Z,1011.13
2019-05-05T09:30:04.515Z,1011.14
2019-05-05T09:31:04.496Z,1011.11
2019-05-05T09:32:04.499Z,1011.04
2019-05-05T09:33:04.458Z,1011.09
2019-05-05T09:34:04.454Z,1011.04
2019-05-05T09:35:04.857Z,1011.14
2019-05-05T09:36:04.776Z,1010.98
2019-05-05T09:37:04.449Z,1011.09
2019-05-05T09:38:04.414Z,1011.07
2019-05-05T09:39:04.423Z,1011.20
2019-05-05T09:40:04.582Z,1011.15
2019-05-05T09:41:04.375Z,1011.16
2019-05-05T09:42:04.412Z,1011.15
2019-05-05T09:43:04.356Z,1011.07
2019-05-05T09:44:04.402Z,1011.11
2019-05-05T09:45:04.902Z,1011.02
2019-05-05T09:46:04.332Z,1011.20
2019-05-05T09:47:04.885Z,1011.02
2019-05-05T09:48:04.409Z,1011.10
2019-05-05T09:49:04.729Z,1011.05
2019-05-05T09:50:04.277Z,1011.11
2019-05-05T09:51:04.505Z,1011.12
2019-05-05T09:52:04.983Z,1010.99
2019-05-05T09:53:04.305Z,1011.10
2019-05-05T09:54:11.890Z,1011.16
2019-05-05T09:55:05.221Z,1011.21
2019-05-05T09:56:04.243Z,1011.13
2019-05-05T09:57:04.612Z,1011.06
2019-05-05T09:58:04.522Z,1011.01
2019-05-05T09:59:04.172Z,1011.05
2019-05-05T10:00:04.680Z,1011.14
2019-05-05T10:01:04.144Z,1011.17
2019-05-05T10:02:04.439Z,1011.07
2019-05-05T10:03:04.171Z,1011.01
2019-05-05T10:04:04.527Z,1010.99
2019-05-05T10:05:04.104Z,1011.11
2019-05-05T10:06:04.921Z,1011.10
2019-05-05T10:07:04.545Z,1011.06
2019-05-05T10:08:04.119Z,1011.14
2019-05-05T10:09:04.061Z,1011.16
2019-05-05T10:10:04.615Z,1011.10
2019-05-05T10:11:04.231Z,1011.10
2019-05-05T10:12:04.794Z,1011.07
2019-05-05T10:13:04.303Z,1011.13
2019-05-05T10:14:04.046Z,1011.22
2019-05-05T10:15:07.519Z,1011.11
2019-05-05T10:16:04.138Z,1011.19
2019-05-05T10:17:04.874Z,1011.13
2019-05-05T10:18:03.984Z,1011.05
2019-05-05T10:19:04.516Z,1011.11
2019-05-05T10:20:04.034Z,1011.17
2019-05-05T10:21:04.633Z,1011.20
2019-05-05T10:22:04.203Z,1011.10
2019-05-05T10:23:03.945Z,1011.28
2019-05-05T10:24:04.573Z,1011.15
2019-05-05T10:25:04.212Z,1011.17
2019-05-05T10:26:04.369Z,1011.23
2019-05-05T10:27:04.963Z,1011.16
2019-05-05T10:28:04.405Z,1011.08
2019-05-05T10:29:04.202Z,1011.10
2019-05-05T10:30:04.198Z,1011.10
2019-05-05T10:31:04.615Z,1011.06
2019-05-05T10:32:04.610Z,1011.07
2019-05-05T10:33:03.950Z,1011.13
2019-05-05T10:34:04.480Z,1011.10
2019-05-05T10:35:04.659Z,1011.09
2019-05-05T10:36:03.767Z,1011.05
2019-05-05T10:37:04.523Z,1011.13
2019-05-05T10:38:03.751Z,1011.16
2019-05-05T10:39:04.396Z,1011.02
2019-05-05T10:40:03.760Z,1011.13
2019-05-05T10:41:04.283Z,1011.13
2019-05-05T10:42:04.056Z,1011.18
2019-05-05T10:43:04.388Z,1011.08
2019-05-05T10:44:05.537Z,1011.15
2019-05-05T10:45:04.408Z,1011.20
2019-05-05T10:46:03.936Z,1011.12
2019-05-05T10:47:04.629Z,1011.13
2019-05-05T10:48:04.186Z,1011.06
2019-05-05T10:49:03.664Z,1011.13
2019-05-05T10:50:05.039Z,1011.11
2019-05-05T10:51:04.213Z,1011.18
2019-05-05T10:52:03.915Z,1011.15
2019-05-05T10:53:04.589Z,1011.10
2019-05-05T10:54:04.094Z,1011.05
2019-05-05T10:55:03.999Z,1011.00
2019-05-05T10:56:04.432Z,1010.92
2019-05-05T10:57:04.186Z,1010.99
2019-05-05T10:58:03.589Z,1010.97
2019-05-05T10:59:04.004Z,1010.98
2019-05-05T11:00:12.250Z,1011.13
2019-05-05T11:01:04.481Z,1010.99
2019-05-05T11:02:04.925Z,1011.07
2019-05-05T11:03:04.026Z,1010.98
2019-05-05T11:04:03.450Z,1011.02
2019-05-05T11:05:04.093Z,1011.01
2019-05-05T11:06:04.494Z,1011.02
2019-05-05T11:07:04.170Z,1011.15
2019-05-05T11:08:04.388Z,1011.19
2019-05-05T11:09:04.416Z,1011.13
2019-05-05T11:10:03.659Z,1011.15
2019-05-05T11:11:04.227Z,1011.03
2019-05-05T11:12:03.362Z,1011.19
2019-05-05T11:13:03.356Z,1010.99
2019-05-05T11:14:03.809Z,1011.03
2019-05-05T11:15:04.060Z,1011.14
2019-05-05T11:16:04.007Z,1011.12
2019-05-05T11:17:04.190Z,1011.27
2019-05-05T11:18:03.988Z,1011.06
2019-05-05T11:19:04.342Z,1011.13
2019-05-05T11:20:03.750Z,1011.26
2019-05-05T11:21:04.015Z,1011.13
2019-05-05T11:22:03.265Z,1011.11
2019-05-05T11:23:04.869Z,1011.18
2019-05-05T11:24:03.230Z,1011.07
2019-05-05T11:25:05.053Z,1011.06
2019-05-05T11:26:03.232Z,1011.09
2019-05-05T11:27:04.424Z,1011.15
2019-05-05T11:28:03.473Z,1011.20
2019-05-05T11:29:04.206Z,1011.13
2019-05-05T11:30:03.962Z,1011.14
2019-05-05T11:31:04.385Z,1011.11
2019-05-05T11:32:03.651Z,1011.23
2019-05-05T11:33:04.007Z,1011.19
2019-05-05T11:34:03.120Z,1011.07
2019-05-05T11:35:04.758Z,1011.05
2019-05-05T11:36:04.480Z,1011.06
2019-05-05T11:37:03.703Z,1011.05
2019-05-05T11:38:03.617Z,1011.07
2019-05-05T11:39:04.041Z,1011.13
2019-05-05T11:40:04.218Z,1010.96
2019-05-05T11:41:04.930Z,1011.11
2019-05-05T11:42:04.411Z,1011.10
2019-05-05T11:43:03.811Z,1010.99
2019-05-05T11:44:04.051Z,1011.02
2019-05-05T11:45:04.250Z,1011.19
2019-05-05T11:46:02.998Z,1011.19
2019-05-05T11:47:03.698Z,1011.10
2019-05-05T11:48:02.959Z,1011.04
2019-05-05T11:49:04.949Z,1011.08
2019-05-05T11:50:04.381Z,1011.04
2019-05-05T11:51:04.519Z,1011.08
2019-05-05T11:52:04.616Z,1011.11
2019-05-05T11:53:03.911Z,1011.07
2019-05-05T11:54:04.699Z,1011.05
2019-05-05T11:55:11.577Z,1010.95
2019-05-05T11:56:04.273Z,1011.09
2019-05-05T11:57:04.329Z,1010.97
2019-05-05T11:58:03.568Z,1011.04
2019-05-05T11:59:03.899Z,1011.06
2019-05-05T12:00:03.848Z,1011.21
2019-05-05T12:01:03.768Z,1011.08
2019-05-05T12:02:03.811Z,1011.21
2019-05-05T12:03:03.860Z,1011.22
2019-05-05T12:04:04.063Z,1011.15
2019-05-05T12:05:04.556Z,1011.33
2019-05-05T12:06:04.003Z,1011.29
2019-05-05T12:07:04.064Z,1011.33
2019-05-05T12:08:03.922Z,1011.17
2019-05-05T12:09:02.733Z,1011.36